Time;durP1;ratioP1;P1;durP2;ratioP2;P2;SDS_P1;SDS_P2;PMS_P1;PMS_P2;Temp;Humidity;BMP_temperature;BMP_pressure;BME280_temperature;BME280_humidity;BME280_pressure;Samples;Min_cycle;Max_cycle;Signal;HPM_P1;HPM_P2
2022/12/01 00:01:28;;;;;;;24.20;14.87;;;5.60;99.90;;;;;;5078242;28;20204;-55
2022/12/01 00:03:54;;;;;;;22.40;14.40;;;5.60;99.90;;;;;;5078132;28;20701;-55
2022/12/01 00:06:22;;;;;;;22.40;14.67;;;5.60;99.90;;;;;;5077748;28;20205;-55
2022/12/01 00:11:37;;;;;;;20.97;13.93;;;5.60;99.90;;;;;;5078414;28;20227;-55
2022/12/01 00:14:05;;;;;;;21.93;14.07;;;5.60;99.90;;;;;;5078408;28;20318;-55
2022/12/01 00:16:32;;;;;;;22.63;14.23;;;5.60;99.90;;;;;;5077636;28;20205;-55
2022/12/01 00:18:59;;;;;;;21.30;14.13;;;5.60;99.90;;;;;;5078399;28;20255;-55
2022/12/01 00:21:27;;;;;;;24.47;14.97;;;5.60;99.90;;;;;;5078430;28;20197;-55
2022/12/01 00:23:57;;;;;;;21.63;14.67;;;5.70;99.90;;;;;;5078065;28;20611;-55
2022/12/01 00:26:25;;;;;;;21.67;14.60;;;5.60;99.90;;;;;;5077617;28;20771;-55
2022/12/01 00:28:53;;;;;;;20.87;13.57;;;5.70;99.90;;;;;;5078376;28;20205;-55
2022/12/01 00:31:20;;;;;;;20.73;13.97;;;5.60;99.90;;;;;;5078166;28;20233;-55
2022/12/01 00:33:47;;;;;;;23.03;14.13;;;5.50;99.90;;;;;;5075379;28;20342;-55
2022/12/01 00:36:14;;;;;;;23.33;14.00;;;5.50;99.90;;;;;;5074473;28;20220;-55
2022/12/01 00:38:41;;;;;;;20.23;13.43;;;5.60;99.90;;;;;;5075154;28;20209;-55
2022/12/01 00:41:09;;;;;;;21.17;14.07;;;5.50;99.90;;;;;;5075320;28;20201;-54
2022/12/01 00:43:36;;;;;;;21.10;13.97;;;5.50;99.90;;;;;;5075245;28;20315;-54
2022/12/01 00:46:03;;;;;;;21.10;13.73;;;5.50;99.90;;;;;;5074461;28;20211;-55
2022/12/01 00:48:30;;;;;;;20.93;13.90;;;5.50;99.90;;;;;;5075358;28;20228;-55
2022/12/01 00:50:57;;;;;;;20.77;14.43;;;5.50;99.90;;;;;;5075153;28;20212;-55
2022/12/01 00:53:24;;;;;;;16.57;11.90;;;5.60;99.90;;;;;;5075235;28;20243;-55
2022/12/01 00:55:52;;;;;;;20.77;12.73;;;5.50;99.90;;;;;;5074193;28;20580;-55
2022/12/01 00:58:21;;;;;;;20.70;13.67;;;5.50;99.90;;;;;;5074746;28;20201;-55
2022/12/01 01:00:47;;;;;;;19.57;13.60;;;5.50;99.90;;;;;;5074931;28;20246;-55
2022/12/01 01:03:14;;;;;;;18.97;12.53;;;5.60;99.90;;;;;;5075132;28;20735;-54
2022/12/01 01:05:43;;;;;;;19.43;12.43;;;5.60;99.90;;;;;;5075340;28;20265;-55
2022/12/01 01:08:11;;;;;;;18.73;12.67;;;5.60;99.90;;;;;;5076011;28;20205;-55
2022/12/01 01:10:38;;;;;;;18.57;12.13;;;5.60;99.90;;;;;;5076458;28;20296;-55
2022/12/01 01:13:05;;;;;;;18.83;12.30;;;5.60;99.90;;;;;;5075548;28;20259;-55
2022/12/01 01:15:33;;;;;;;19.07;12.83;;;5.70;99.90;;;;;;5075388;28;20205;-55
2022/12/01 01:18:01;;;;;;;18.33;12.73;;;5.70;99.90;;;;;;5075306;28;20209;-55
2022/12/01 01:20:28;;;;;;;19.90;12.67;;;5.70;99.90;;;;;;5075300;28;20232;-55
2022/12/01 01:22:54;;;;;;;17.37;12.50;;;5.70;99.90;;;;;;5074722;28;20209;-55
2022/12/01 01:25:21;;;;;;;18.83;12.87;;;5.70;99.90;;;;;;5114899;22;20227;-63
2022/12/01 01:27:48;;;;;;;18.27;11.23;;;5.80;99.90;;;;;;5094318;28;20200;-62
2022/12/01 01:30:16;;;;;;;17.93;11.20;;;5.90;99.90;;;;;;5095055;28;20287;-63
2022/12/01 01:32:44;;;;;;;18.17;12.50;;;5.90;99.90;;;;;;5094803;28;20573;-63
2022/12/01 01:35:10;;;;;;;15.33;11.00;;;5.90;99.90;;;;;;5094158;28;20230;-61
2022/12/01 01:37:37;;;;;;;15.83;11.13;;;5.90;99.90;;;;;;5098485;28;20235;-65
2022/12/01 01:40:05;;;;;;;17.87;12.20;;;6.00;99.90;;;;;;5094901;28;20214;-63
2022/12/01 01:42:32;;;;;;;16.47;11.67;;;6.00;99.90;;;;;;5102943;28;20711;-63
2022/12/01 01:44:59;;;;;;;18.20;11.90;;;6.00;99.90;;;;;;5107507;28;20236;-63
2022/12/01 01:47:30;;;;;;;18.00;12.40;;;5.90;99.90;;;;;;5100716;28;20204;-63
2022/12/01 01:50:05;;;;;;;16.97;12.40;;;5.80;99.90;;;;;;5098264;28;20211;-63
2022/12/01 01:52:32;;;;;;;18.93;12.87;;;5.80;99.90;;;;;;5098001;28;20220;-62
2022/12/01 01:55:00;;;;;;;18.40;12.03;;;5.70;99.90;;;;;;5099307;28;20250;-63
2022/12/01 01:57:30;;;;;;;19.80;12.60;;;5.70;99.90;;;;;;5107335;28;20295;-67
2022/12/01 02:00:02;;;;;;;18.77;12.10;;;5.70;99.90;;;;;;5111447;28;20228;-63
2022/12/01 02:02:29;;;;;;;16.83;11.23;;;5.70;99.90;;;;;;5111986;28;20208;-63
2022/12/01 02:05:02;;;;;;;17.70;12.07;;;5.70;99.90;;;;;;5095879;28;20235;-63
2022/12/01 02:07:29;;;;;;;17.77;11.93;;;5.70;99.90;;;;;;5094775;28;20208;-63
2022/12/01 02:09:56;;;;;;;20.67;12.53;;;5.70;99.90;;;;;;5097553;28;20208;-62
2022/12/01 02:12:50;;;;;;;20.03;12.73;;;5.60;99.90;;;;;;5098335;28;20234;-63
2022/12/01 02:15:28;;;;;;;16.77;11.53;;;5.60;99.90;;;;;;5095367;28;20235;-62
2022/12/01 02:18:06;;;;;;;18.93;12.90;;;5.60;99.90;;;;;;5093707;28;20208;-62
2022/12/01 02:20:59;;;;;;;18.67;11.97;;;5.70;99.90;;;;;;5094886;28;20199;-62
2022/12/01 02:24:19;;;;;;;19.53;12.20;;;5.70;99.90;;;;;;5095675;28;20683;-62
2022/12/01 02:26:50;;;;;;;19.07;11.70;;;5.60;99.90;;;;;;5098693;28;20214;-62
2022/12/01 02:29:57;;;;;;;17.40;12.20;;;5.60;99.90;;;;;;5098425;28;20265;-64
2022/12/01 02:32:33;;;;;;;17.03;11.83;;;5.50;99.90;;;;;;5085402;28;20224;-62
2022/12/01 02:35:08;;;;;;;16.90;11.73;;;5.40;99.90;;;;;;5094677;28;20323;-62
2022/12/01 02:37:40;;;;;;;15.17;11.00;;;5.30;99.90;;;;;;5094502;28;20203;-63
2022/12/01 02:40:16;;;;;;;17.33;12.00;;;5.30;99.90;;;;;;5094391;28;20208;-63
2022/12/01 02:42:49;;;;;;;19.03;11.93;;;5.20;99.90;;;;;;5095001;28;20200;-62
2022/12/01 02:45:22;;;;;;;17.30;12.30;;;5.20;99.90;;;;;;5094624;28;20327;-62
2022/12/01 02:47:53;;;;;;;17.23;11.47;;;5.10;99.90;;;;;;5095111;28;20235;-63
2022/12/01 02:50:22;;;;;;;17.90;12.03;;;5.10;99.90;;;;;;5096287;28;20299;-62
2022/12/01 02:52:49;;;;;;;16.03;11.43;;;4.90;99.90;;;;;;5096371;28;20596;-62
2022/12/01 02:55:16;;;;;;;17.03;11.87;;;4.90;99.90;;;;;;5095810;28;20224;-62
2022/12/01 02:57:43;;;;;;;16.17;11.70;;;4.80;99.90;;;;;;5096019;28;20675;-63
2022/12/01 03:00:12;;;;;;;18.17;12.70;;;4.70;99.90;;;;;;5096237;28;20582;-62
2022/12/01 03:02:50;;;;;;;18.60;12.30;;;4.80;99.90;;;;;;5095985;28;20201;-62
2022/12/01 03:05:26;;;;;;;20.23;11.83;;;4.80;99.90;;;;;;5096111;28;20287;-61
2022/12/01 03:08:01;;;;;;;19.93;12.27;;;4.80;99.90;;;;;;5096684;28;20203;-62
2022/12/01 03:10:38;;;;;;;19.53;12.57;;;4.80;99.90;;;;;;5095467;28;20211;-62
2022/12/01 03:13:16;;;;;;;19.37;12.97;;;4.80;99.90;;;;;;5096828;28;20319;-61
2022/12/01 03:15:52;;;;;;;20.37;13.50;;;4.80;99.90;;;;;;5098579;28;20238;-62
2022/12/01 03:18:28;;;;;;;19.93;12.90;;;4.80;99.90;;;;;;5102382;28;20265;-62
2022/12/01 03:21:04;;;;;;;19.03;12.70;;;4.80;99.90;;;;;;5103599;28;20279;-62
2022/12/01 03:23:36;;;;;;;18.77;13.40;;;4.80;99.90;;;;;;5103216;28;20203;-69
2022/12/01 03:26:06;;;;;;;21.43;13.23;;;4.80;99.90;;;;;;5101989;28;20212;-63
2022/12/01 03:28:36;;;;;;;20.20;13.63;;;4.80;99.90;;;;;;5102666;28;20212;-62
2022/12/01 03:31:08;;;;;;;19.87;12.87;;;4.90;99.90;;;;;;5104838;28;20227;-62
2022/12/01 03:33:39;;;;;;;20.20;13.53;;;4.90;99.90;;;;;;5101607;28;20254;-62
2022/12/01 03:36:13;;;;;;;20.03;13.20;;;4.90;99.90;;;;;;5101819;28;20204;-63
2022/12/01 03:38:44;;;;;;;21.03;13.70;;;4.80;99.90;;;;;;5101749;28;20216;-62
2022/12/01 03:41:16;;;;;;;20.00;13.03;;;4.80;99.90;;;;;;5095659;28;20212;-62
2022/12/01 03:43:49;;;;;;;20.33;13.57;;;4.80;99.90;;;;;;5095597;28;20256;-62
2022/12/01 03:46:23;;;;;;;24.00;14.40;;;4.80;99.90;;;;;;5095803;28;20210;-61
2022/12/01 03:48:51;;;;;;;21.03;14.33;;;4.80;99.90;;;;;;5096858;28;20582;-62
2022/12/01 03:51:26;;;;;;;22.77;14.80;;;4.90;99.90;;;;;;5097530;28;20234;-62
2022/12/01 03:53:59;;;;;;;19.93;13.93;;;5.00;99.90;;;;;;5095701;28;20227;-62
2022/12/01 03:56:30;;;;;;;20.87;13.87;;;5.20;99.90;;;;;;5094933;28;20816;-62
2022/12/01 03:59:00;;;;;;;21.17;14.77;;;5.30;99.90;;;;;;5095593;28;20208;-63
2022/12/01 04:01:31;;;;;;;21.57;13.93;;;5.30;99.90;;;;;;5096021;28;20211;-62
2022/12/01 04:04:04;;;;;;;21.17;13.37;;;5.30;99.90;;;;;;5095073;28;20225;-64
2022/12/01 04:06:33;;;;;;;20.17;13.27;;;5.40;99.90;;;;;;5096069;28;20201;-62
2022/12/01 04:08:59;;;;;;;19.90;13.90;;;5.40;99.90;;;;;;5096260;28;20204;-62
2022/12/01 04:14:11;;;;;;;22.07;14.87;;;5.40;99.90;;;;;;5098527;28;20742;-64
2022/12/01 04:16:38;;;;;;;32.37;21.93;;;5.50;99.90;;;;;;5097852;28;20204;-61
2022/12/01 04:19:04;;;;;;;22.40;14.17;;;5.60;99.90;;;;;;5099070;28;20211;-61
2022/12/01 04:21:32;;;;;;;20.67;14.40;;;5.50;99.90;;;;;;5098370;28;20208;-63
2022/12/01 04:24:02;;;;;;;19.90;14.23;;;5.60;99.90;;;;;;5098544;28;20228;-61
2022/12/01 04:26:31;;;;;;;20.23;14.07;;;5.60;99.90;;;;;;5096774;28;20634;-63
2022/12/01 04:28:58;;;;;;;21.57;13.30;;;5.70;99.90;;;;;;5096912;28;20242;-63
2022/12/01 04:31:24;;;;;;;19.73;13.63;;;5.80;99.90;;;;;;5096800;28;20200;-64
2022/12/01 04:33:51;;;;;;;19.37;12.90;;;5.90;99.90;;;;;;5096270;28;20728;-63
2022/12/01 04:36:18;;;;;;;19.23;13.87;;;5.90;99.90;;;;;;5095922;28;20216;-63
2022/12/01 04:38:46;;;;;;;21.27;13.97;;;5.90;99.90;;;;;;5096110;28;20205;-63
2022/12/01 04:41:14;;;;;;;19.77;13.97;;;5.90;99.90;;;;;;5096203;28;20204;-63
2022/12/01 04:43:41;;;;;;;22.37;14.43;;;5.80;99.90;;;;;;5096429;28;20597;-64
2022/12/01 04:46:09;;;;;;;22.70;14.23;;;5.90;99.90;;;;;;5095687;28;20215;-63
2022/12/01 04:48:36;;;;;;;21.70;14.80;;;5.90;99.90;;;;;;5095701;28;20210;-63
2022/12/01 04:51:03;;;;;;;22.53;14.73;;;5.90;99.90;;;;;;5095602;28;20629;-63
2022/12/01 04:53:30;;;;;;;21.00;13.73;;;6.00;99.90;;;;;;5095619;28;20603;-63
2022/12/01 04:55:59;;;;;;;21.63;14.73;;;5.90;99.90;;;;;;5094882;28;20274;-63
2022/12/01 04:58:26;;;;;;;21.00;14.33;;;5.90;99.90;;;;;;5095088;28;20242;-64
2022/12/01 05:00:53;;;;;;;23.70;15.23;;;5.90;99.90;;;;;;5095028;28;20589;-61
2022/12/01 05:03:20;;;;;;;21.00;14.20;;;5.90;99.90;;;;;;5094765;28;20207;-61
2022/12/01 05:05:47;;;;;;;21.77;14.60;;;6.00;99.90;;;;;;5094092;28;20208;-61
2022/12/01 05:08:13;;;;;;;22.60;14.27;;;6.00;99.90;;;;;;5094250;28;20208;-61
2022/12/01 05:10:40;;;;;;;19.80;13.87;;;6.10;99.90;;;;;;5094611;28;20215;-61
2022/12/01 05:13:09;;;;;;;21.50;14.67;;;6.10;99.90;;;;;;5094395;28;20703;-60
2022/12/01 05:15:35;;;;;;;21.60;14.77;;;6.10;99.90;;;;;;5093767;28;20224;-62
2022/12/01 05:18:02;;;;;;;19.63;13.90;;;6.30;99.90;;;;;;5094037;28;20696;-61
2022/12/01 05:23:13;;;;;;;26.27;16.73;;;6.30;99.90;;;;;;5094900;28;20282;-61
2022/12/01 05:25:41;;;;;;;21.07;15.50;;;6.30;99.90;;;;;;5093604;28;20239;-61
2022/12/01 05:28:09;;;;;;;21.07;14.13;;;6.30;99.90;;;;;;5094410;28;20718;-61
2022/12/01 05:30:36;;;;;;;22.57;14.70;;;6.10;99.90;;;;;;5094334;28;20696;-60
2022/12/01 05:33:03;;;;;;;22.97;14.80;;;6.10;99.90;;;;;;5095792;28;20234;-63
2022/12/01 05:35:29;;;;;;;23.07;15.50;;;6.10;99.90;;;;;;5095362;28;20228;-62
2022/12/01 05:37:56;;;;;;;19.63;14.13;;;6.20;99.90;;;;;;5094755;28;20214;-61
2022/12/01 05:40:23;;;;;;;20.17;14.30;;;6.20;99.90;;;;;;5094117;28;20219;-61
2022/12/01 05:42:50;;;;;;;22.43;15.23;;;6.20;99.90;;;;;;5093943;28;20204;-61
2022/12/01 05:45:18;;;;;;;21.40;14.17;;;6.20;99.90;;;;;;5093032;28;20606;-62
2022/12/01 05:47:45;;;;;;;21.27;15.20;;;6.20;99.90;;;;;;5093876;28;20208;-61
2022/12/01 05:50:11;;;;;;;24.90;16.53;;;6.20;99.90;;;;;;5093700;28;20212;-61
2022/12/01 05:52:38;;;;;;;23.10;15.67;;;6.20;99.90;;;;;;5093739;28;20224;-62
2022/12/01 05:55:06;;;;;;;21.07;14.13;;;6.20;99.90;;;;;;5092922;28;20604;-62
2022/12/01 05:57:33;;;;;;;22.60;14.93;;;6.20;99.90;;;;;;5093616;28;20672;-61
2022/12/01 06:00:00;;;;;;;20.80;14.27;;;6.30;99.90;;;;;;5094077;28;20208;-61
2022/12/01 06:02:28;;;;;;;20.13;14.47;;;6.30;99.90;;;;;;5094677;28;20231;-62
2022/12/01 06:04:55;;;;;;;23.70;14.70;;;6.30;99.90;;;;;;5093819;28;20228;-62
2022/12/01 06:07:24;;;;;;;21.13;14.30;;;6.30;99.90;;;;;;5093422;28;20208;-60
2022/12/01 06:09:51;;;;;;;21.63;15.33;;;6.10;99.90;;;;;;5093739;28;20579;-60
2022/12/01 06:12:18;;;;;;;21.50;14.50;;;6.00;99.90;;;;;;5093384;28;20200;-62
2022/12/01 06:14:44;;;;;;;21.43;15.03;;;6.00;99.90;;;;;;5093200;28;20255;-61
2022/12/01 06:17:11;;;;;;;20.97;14.60;;;6.00;99.90;;;;;;5092767;28;20200;-61
2022/12/01 06:19:40;;;;;;;21.10;14.50;;;5.90;99.90;;;;;;5093177;28;20214;-61
2022/12/01 06:22:06;;;;;;;20.00;13.80;;;5.80;99.90;;;;;;5093516;28;20611;-61
2022/12/01 06:24:33;;;;;;;21.30;15.23;;;5.80;99.90;;;;;;5093435;28;20244;-61
2022/12/01 06:27:00;;;;;;;19.87;14.43;;;5.70;99.90;;;;;;5093152;28;20204;-61
2022/12/01 06:29:26;;;;;;;20.27;14.37;;;5.80;99.90;;;;;;5093496;28;20676;-61
2022/12/01 06:31:53;;;;;;;23.23;15.10;;;5.80;99.90;;;;;;5092531;28;20703;-61
2022/12/01 06:34:20;;;;;;;19.00;13.40;;;5.80;99.90;;;;;;5094624;28;20239;-61
2022/12/01 06:36:48;;;;;;;20.47;14.80;;;5.90;99.90;;;;;;5095889;28;20204;-61
2022/12/01 06:39:15;;;;;;;19.83;14.27;;;5.90;99.90;;;;;;5097180;28;20210;-61
2022/12/01 06:41:42;;;;;;;20.07;14.77;;;6.00;99.90;;;;;;5098569;28;20212;-63
2022/12/01 06:44:09;;;;;;;21.73;15.23;;;5.90;99.90;;;;;;5102960;28;20223;-62
2022/12/01 06:46:36;;;;;;;20.90;14.37;;;5.90;99.90;;;;;;5104778;28;20668;-61
2022/12/01 06:49:03;;;;;;;24.27;15.53;;;5.90;99.90;;;;;;5100680;28;20672;-61
2022/12/01 06:51:33;;;;;;;20.43;14.27;;;5.90;99.90;;;;;;5094546;28;20269;-61
2022/12/01 06:54:01;;;;;;;21.87;14.63;;;6.00;99.90;;;;;;5092719;28;20259;-62
2022/12/01 06:56:27;;;;;;;21.80;15.07;;;5.90;99.90;;;;;;5092335;28;20204;-61
2022/12/01 06:58:54;;;;;;;23.37;15.90;;;6.00;99.90;;;;;;5092759;28;20208;-62
2022/12/01 07:01:21;;;;;;;21.13;14.33;;;6.00;99.90;;;;;;5092798;28;20208;-62
2022/12/01 07:03:48;;;;;;;19.83;13.93;;;6.10;99.90;;;;;;5092465;28;20216;-62
2022/12/01 07:06:16;;;;;;;19.53;13.77;;;6.10;99.90;;;;;;5092076;28;20211;-62
2022/12/01 07:08:43;;;;;;;21.50;14.90;;;6.10;99.90;;;;;;5092681;28;20211;-61
2022/12/01 07:11:14;;;;;;;19.70;14.37;;;6.10;99.90;;;;;;5092389;28;20607;-61
2022/12/01 07:13:44;;;;;;;21.43;14.00;;;6.10;99.90;;;;;;5091995;28;20721;-61
2022/12/01 07:16:11;;;;;;;21.73;14.60;;;6.10;99.90;;;;;;5092026;28;20200;-61
2022/12/01 07:18:39;;;;;;;25.00;14.40;;;6.10;99.90;;;;;;5092686;28;20204;-61
2022/12/01 07:21:08;;;;;;;22.23;14.40;;;6.00;99.90;;;;;;5092107;28;20733;-61
2022/12/01 07:26:05;;;;;;;19.60;14.20;;;6.20;99.90;;;;;;5102647;22;20283;-55
2022/12/01 07:28:33;;;;;;;20.67;14.03;;;6.20;99.90;;;;;;5090298;28;20242;-56
2022/12/01 07:31:04;;;;;;;21.77;14.00;;;6.30;99.90;;;;;;5092637;28;20720;-55
2022/12/01 07:33:31;;;;;;;22.97;13.80;;;6.20;99.90;;;;;;5093199;28;20224;-55
2022/12/01 07:35:59;;;;;;;19.77;13.90;;;6.30;99.90;;;;;;5092131;28;20266;-57
2022/12/01 07:38:28;;;;;;;20.13;14.10;;;6.20;99.90;;;;;;5092367;28;20581;-54
2022/12/01 07:40:54;;;;;;;18.20;13.73;;;6.00;99.90;;;;;;5092495;28;20570;-56
2022/12/01 07:43:21;;;;;;;21.67;14.33;;;5.90;99.90;;;;;;5094528;28;20207;-55
2022/12/01 07:45:49;;;;;;;19.67;12.83;;;6.00;99.90;;;;;;5096242;28;20256;-55
2022/12/01 07:48:16;;;;;;;21.97;13.10;;;5.90;99.90;;;;;;5096530;28;20204;-56
2022/12/01 07:50:43;;;;;;;18.77;13.77;;;5.80;99.90;;;;;;5096894;28;20352;-56
2022/12/01 07:53:10;;;;;;;19.30;13.83;;;5.90;99.90;;;;;;5096112;28;20219;-56
2022/12/01 07:55:37;;;;;;;17.87;12.83;;;6.00;99.90;;;;;;5095937;28;20314;-56
2022/12/01 07:58:04;;;;;;;21.97;14.87;;;6.20;99.90;;;;;;5096394;28;20287;-55
2022/12/01 08:00:31;;;;;;;22.03;15.10;;;6.30;99.90;;;;;;5095894;28;20634;-55
2022/12/01 08:02:59;;;;;;;21.57;15.03;;;6.40;99.90;;;;;;5095888;28;20291;-56
2022/12/01 08:05:26;;;;;;;19.30;14.47;;;6.50;99.90;;;;;;5095310;28;20227;-55
2022/12/01 08:07:54;;;;;;;19.33;13.40;;;6.60;99.90;;;;;;5095791;28;20232;-56
2022/12/01 08:10:20;;;;;;;19.73;13.40;;;6.60;99.90;;;;;;5096146;28;20239;-56
2022/12/01 08:12:47;;;;;;;20.23;13.93;;;6.50;99.90;;;;;;5096052;28;20590;-56
2022/12/01 08:15:14;;;;;;;20.20;14.17;;;6.50;99.90;;;;;;5095319;28;20224;-55
2022/12/01 08:17:41;;;;;;;20.07;14.30;;;6.50;99.90;;;;;;5095606;28;20251;-55
2022/12/01 08:20:11;;;;;;;19.57;14.07;;;6.40;99.90;;;;;;5095644;28;20243;-55
2022/12/01 08:22:37;;;;;;;20.37;14.37;;;6.30;99.90;;;;;;5096088;28;20206;-55
2022/12/01 08:25:05;;;;;;;20.73;13.67;;;6.30;99.90;;;;;;5095525;28;20232;-56
2022/12/01 08:27:32;;;;;;;21.37;14.23;;;6.30;99.90;;;;;;5095235;28;20236;-56
2022/12/01 08:29:59;;;;;;;19.27;13.63;;;6.30;99.90;;;;;;5095632;28;20202;-56
2022/12/01 08:32:28;;;;;;;20.10;13.60;;;6.30;99.90;;;;;;5095678;28;20204;-55
2022/12/01 08:34:55;;;;;;;22.37;14.23;;;6.20;99.90;;;;;;5095269;28;20263;-57
2022/12/01 08:37:23;;;;;;;22.00;14.13;;;6.00;99.90;;;;;;5094891;28;20678;-55
2022/12/01 08:39:50;;;;;;;20.20;13.80;;;5.90;99.90;;;;;;5093497;28;20296;-62
2022/12/01 08:42:17;;;;;;;19.20;13.03;;;6.00;99.90;;;;;;5097000;28;20204;-59
2022/12/01 08:44:44;;;;;;;18.53;14.20;;;6.20;99.90;;;;;;5099347;28;20227;-59
2022/12/01 08:47:10;;;;;;;19.87;13.47;;;6.50;99.90;;;;;;5097068;28;20414;-57
2022/12/01 08:49:37;;;;;;;18.87;13.50;;;6.60;99.90;;;;;;5097735;28;20204;-59
2022/12/01 08:52:04;;;;;;;23.50;13.73;;;6.80;99.90;;;;;;5097649;28;20204;-61
2022/12/01 08:54:33;;;;;;;22.30;13.80;;;7.00;99.90;;;;;;5095718;28;20236;-60
2022/12/01 08:56:59;;;;;;;17.50;12.03;;;6.80;99.90;;;;;;5097321;28;20684;-61
2022/12/01 08:59:26;;;;;;;17.50;12.67;;;6.70;99.90;;;;;;5097164;28;20759;-63
2022/12/01 09:01:53;;;;;;;19.67;13.03;;;6.50;99.90;;;;;;5096169;28;20204;-55
2022/12/01 09:04:22;;;;;;;18.07;13.23;;;6.30;99.90;;;;;;5094267;28;20226;-60
2022/12/01 09:06:50;;;;;;;19.40;12.77;;;6.30;99.90;;;;;;5085274;28;20220;-60
2022/12/01 09:09:19;;;;;;;18.93;13.47;;;6.50;99.90;;;;;;5073398;28;20296;-58
2022/12/01 09:11:48;;;;;;;19.20;13.40;;;6.50;99.90;;;;;;5075076;28;20421;-57
2022/12/01 09:14:17;;;;;;;18.90;13.47;;;6.30;99.90;;;;;;5073619;28;20232;-57
2022/12/01 09:16:45;;;;;;;18.20;12.63;;;6.40;99.90;;;;;;5072815;28;20251;-60
2022/12/01 09:19:12;;;;;;;20.10;13.17;;;6.40;99.90;;;;;;5074205;28;20273;-58
2022/12/01 09:21:39;;;;;;;17.93;13.00;;;6.40;99.90;;;;;;5074182;28;20215;-58
2022/12/01 09:24:07;;;;;;;18.97;12.93;;;6.50;99.90;;;;;;5073834;28;20225;-58
2022/12/01 09:26:34;;;;;;;18.67;13.03;;;6.50;99.90;;;;;;5073589;28;20209;-58
2022/12/01 09:29:05;;;;;;;18.17;13.23;;;6.60;99.90;;;;;;5073422;28;20677;-57
2022/12/01 09:31:33;;;;;;;19.60;13.37;;;6.60;99.90;;;;;;5073767;28;20579;-57
2022/12/01 09:34:02;;;;;;;19.13;12.87;;;6.80;99.90;;;;;;5074158;28;20256;-55
2022/12/01 09:36:32;;;;;;;18.20;13.17;;;6.90;99.90;;;;;;5073845;28;20215;-55
2022/12/01 09:38:59;;;;;;;18.63;12.27;;;7.00;99.90;;;;;;5074632;28;20678;-55
2022/12/01 09:41:29;;;;;;;17.43;12.80;;;7.20;99.90;;;;;;5074555;28;20205;-55
2022/12/01 09:44:14;;;;;;;16.93;12.70;;;7.30;99.90;;;;;;5075709;28;20740;-61
2022/12/01 09:46:46;;;;;;;20.50;12.97;;;7.40;99.90;;;;;;5074417;28;20600;-57
2022/12/01 09:49:18;;;;;;;19.40;12.90;;;7.40;99.90;;;;;;5074100;28;20212;-56
2022/12/01 09:51:45;;;;;;;18.50;12.50;;;7.30;99.90;;;;;;5074461;28;20295;-58
2022/12/01 09:54:14;;;;;;;18.80;13.03;;;7.20;99.90;;;;;;5074187;28;20312;-57
2022/12/01 09:56:45;;;;;;;18.60;12.83;;;7.20;99.90;;;;;;5074394;28;20211;-56
2022/12/01 09:59:21;;;;;;;16.93;12.37;;;7.20;99.90;;;;;;5074263;28;20212;-55
2022/12/01 10:01:51;;;;;;;18.63;12.73;;;7.20;99.90;;;;;;5074375;28;20216;-56
2022/12/01 10:04:23;;;;;;;18.17;13.10;;;7.30;99.90;;;;;;5073921;28;20313;-57
2022/12/01 10:06:55;;;;;;;18.07;12.80;;;7.30;99.90;;;;;;5073722;28;20315;-57
2022/12/01 10:09:26;;;;;;;17.50;12.47;;;7.40;99.90;;;;;;5073756;28;20221;-55
2022/12/01 10:12:01;;;;;;;18.27;12.37;;;7.40;99.90;;;;;;5073944;28;20272;-57
2022/12/01 10:14:37;;;;;;;19.40;13.47;;;7.50;99.90;;;;;;5073627;28;20228;-57
2022/12/01 10:17:24;;;;;;;18.00;12.33;;;7.50;99.90;;;;;;5073229;28;20208;-56
2022/12/01 10:19:58;;;;;;;16.83;12.23;;;7.60;99.90;;;;;;5073999;28;20209;-56
2022/12/01 10:22:49;;;;;;;15.30;11.40;;;7.40;99.90;;;;;;5073201;28;20246;-57
2022/12/01 10:25:21;;;;;;;17.97;13.43;;;7.30;99.90;;;;;;5073278;28;20239;-56
2022/12/01 10:28:05;;;;;;;18.23;12.00;;;7.20;99.90;;;;;;5073622;28;20296;-57
2022/12/01 10:30:38;;;;;;;19.27;12.70;;;7.10;99.90;;;;;;5073347;28;20216;-56
2022/12/01 10:33:15;;;;;;;18.00;12.00;;;6.90;99.90;;;;;;5073390;28;20209;-55
2022/12/01 10:35:42;;;;;;;17.40;12.63;;;6.80;99.90;;;;;;5072449;28;20263;-55
2022/12/01 10:38:15;;;;;;;16.63;12.10;;;7.00;99.90;;;;;;5074042;28;20213;-56
2022/12/01 10:40:42;;;;;;;17.20;12.20;;;7.30;99.90;;;;;;5074070;28;20680;-60
2022/12/01 10:43:10;;;;;;;16.57;11.93;;;7.30;99.90;;;;;;5073697;28;20217;-56
2022/12/01 10:45:43;;;;;;;17.87;11.57;;;7.40;99.90;;;;;;5073533;28;20626;-56
2022/12/01 10:48:14;;;;;;;16.10;11.80;;;7.60;99.90;;;;;;5073420;28;20205;-57
2022/12/01 10:50:42;;;;;;;18.67;12.80;;;7.60;99.90;;;;;;5073613;28;20205;-56
2022/12/01 10:53:27;;;;;;;17.00;11.90;;;7.70;99.90;;;;;;5073319;28;20236;-56
2022/12/01 10:56:04;;;;;;;19.57;12.07;;;7.70;99.90;;;;;;5072390;28;20685;-55
2022/12/01 10:58:32;;;;;;;18.87;12.57;;;7.60;99.90;;;;;;5072894;28;20240;-57
2022/12/01 11:01:03;;;;;;;16.77;12.33;;;7.60;99.90;;;;;;5072980;28;20244;-56
2022/12/01 11:03:32;;;;;;;15.63;11.57;;;7.70;99.90;;;;;;5072932;28;20287;-57
2022/12/01 11:06:01;;;;;;;16.67;12.03;;;7.80;99.90;;;;;;5072082;28;20225;-56
2022/12/01 11:08:45;;;;;;;15.73;11.73;;;7.70;99.90;;;;;;5072803;28;20687;-56
2022/12/01 11:11:25;;;;;;;21.60;12.30;;;7.70;99.90;;;;;;5073247;28;20208;-62
2022/12/01 11:13:53;;;;;;;15.13;11.30;;;7.60;99.90;;;;;;5074473;28;20212;-62
2022/12/01 11:16:36;;;;;;;15.87;11.60;;;7.90;99.90;;;;;;5072883;28;20208;-57
2022/12/01 11:19:09;;;;;;;16.40;11.80;;;8.10;99.90;;;;;;5072714;28;20214;-57
2022/12/01 11:21:46;;;;;;;16.57;11.70;;;8.20;99.90;;;;;;5073167;28;20204;-58
2022/12/01 11:24:28;;;;;;;16.10;11.50;;;8.30;99.90;;;;;;5073456;28;20712;-57
2022/12/01 11:26:56;;;;;;;15.40;11.73;;;8.40;99.90;;;;;;5072611;28;20212;-57
2022/12/01 11:29:30;;;;;;;15.80;11.63;;;8.50;99.90;;;;;;5073133;28;20208;-57
2022/12/01 11:32:00;;;;;;;15.60;11.57;;;8.70;99.90;;;;;;5073320;28;20626;-57
2022/12/01 11:34:30;;;;;;;15.33;11.37;;;9.00;99.90;;;;;;5073132;28;20266;-57
2022/12/01 11:37:00;;;;;;;15.10;11.23;;;9.20;99.90;;;;;;5072754;28;20204;-57
2022/12/01 11:39:30;;;;;;;18.87;12.37;;;9.10;99.90;;;;;;5072714;28;20208;-57
2022/12/01 11:42:00;;;;;;;16.37;11.13;;;9.00;99.90;;;;;;5073194;28;20205;-56
2022/12/01 11:44:28;;;;;;;17.23;11.80;;;9.00;99.90;;;;;;5072918;28;20220;-57
2022/12/01 11:46:55;;;;;;;16.50;12.57;;;8.90;99.90;;;;;;5072566;28;20216;-56
2022/12/01 11:49:25;;;;;;;14.17;10.60;;;8.90;99.90;;;;;;5073093;28;20235;-56
2022/12/01 11:51:52;;;;;;;16.13;11.83;;;9.00;99.90;;;;;;5073212;28;20266;-58
2022/12/01 11:54:23;;;;;;;14.27;11.10;;;9.20;99.90;;;;;;5073291;28;20233;-58
2022/12/01 11:56:52;;;;;;;15.73;11.57;;;9.40;99.90;;;;;;5072863;28;20291;-57
2022/12/01 11:59:23;;;;;;;15.97;11.30;;;9.50;99.90;;;;;;5072620;28;20208;-57
2022/12/01 12:02:13;;;;;;;15.00;10.80;;;9.50;99.90;;;;;;5073301;28;20239;-57
2022/12/01 12:04:56;;;;;;;13.83;10.53;;;9.50;99.90;;;;;;5072748;28;20236;-56
2022/12/01 12:07:31;;;;;;;14.43;11.33;;;9.50;99.90;;;;;;5071100;28;20213;-57
2022/12/01 12:10:11;;;;;;;16.50;11.00;;;9.50;99.90;;;;;;5067871;28;20681;-59
2022/12/01 12:12:50;;;;;;;15.27;10.77;;;9.50;99.90;;;;;;5071570;28;20262;-58
2022/12/01 12:15:27;;;;;;;14.87;10.63;;;9.50;99.90;;;;;;5071080;28;20696;-58
2022/12/01 12:18:14;;;;;;;14.60;10.93;;;9.20;99.90;;;;;;5070806;28;20205;-59
2022/12/01 12:20:57;;;;;;;17.13;11.30;;;9.10;99.90;;;;;;5070901;28;20762;-57
2022/12/01 12:23:52;;;;;;;15.23;10.97;;;9.10;99.90;;;;;;5071851;28;20209;-57
2022/12/01 12:26:21;;;;;;;15.50;10.87;;;10.40;99.90;;;;;;5071055;28;20668;-57
2022/12/01 12:29:12;;;;;;;15.90;11.30;;;9.20;99.90;;;;;;5072097;28;20215;-57
2022/12/01 12:31:51;;;;;;;15.43;11.60;;;9.10;99.90;;;;;;5074578;28;20642;-58
2022/12/01 12:34:31;;;;;;;17.63;11.00;;;9.10;99.90;;;;;;5075142;28;20224;-59
2022/12/01 12:37:10;;;;;;;14.37;10.10;;;9.00;99.90;;;;;;5075227;28;20230;-61
2022/12/01 12:39:49;;;;;;;15.63;10.53;;;9.00;99.90;;;;;;5075408;28;20212;-60
2022/12/01 12:42:24;;;;;;;17.57;12.13;;;9.00;99.90;;;;;;5075039;28;20237;-59
2022/12/01 12:44:57;;;;;;;13.70;10.70;;;8.80;99.90;;;;;;5075365;28;20221;-56
2022/12/01 12:47:37;;;;;;;18.33;11.30;;;8.80;99.90;;;;;;5075291;28;20212;-56
2022/12/01 12:50:17;;;;;;;15.70;10.67;;;8.80;99.90;;;;;;5074988;28;20213;-56
2022/12/01 12:52:48;;;;;;;23.73;17.27;;;8.80;99.90;;;;;;5075189;28;20244;-55
2022/12/01 12:55:21;;;;;;;19.40;14.23;;;8.70;99.90;;;;;;5075065;28;20260;-57
2022/12/01 12:57:52;;;;;;;15.20;11.03;;;8.70;99.90;;;;;;5074676;28;20571;-56
2022/12/01 13:00:22;;;;;;;15.00;11.33;;;8.80;99.90;;;;;;5075360;28;20707;-56
2022/12/01 13:02:54;;;;;;;16.40;11.80;;;9.20;99.90;;;;;;5075052;28;20215;-57